Data for 04/26/2018

Time Sea-Level Adjusted Pressure Absolute Pressure Temperature Relative Humidity Dew Point   
(mb) (inHg) (mb) (inHg) (C) (F) (%) (C) (F)
00:05 1025 30.27 855 25.25 6 42.8 53 -2.8 27
00:10 1025 30.27 855 25.25 5.8 42.5 54 -2.8 26.9
00:15 1025 30.27 855 25.25 5.8 42.5 53 -2.9 26.7
00:20 1025 30.27 855 25.25 5.8 42.5 53 -3.1 26.4
00:25 1026 30.3 855 25.25 5.9 42.6 52 -3.2 26.3
00:30 1026 30.3 855 25.25 5.9 42.7 54 -2.7 27.1
00:35 1026 30.3 855 25.25 5.5 41.9 57 -2.4 27.7
00:40 1026 30.3 855 25.25 5.4 41.8 56 -2.6 27.3
00:45 1026 30.3 855 25.25 5.4 41.6 57 -2.4 27.7
00:50 1026 30.3 855 25.25 5.1 41.2 59 -2.3 27.9
00:55 1025 30.27 855 25.25 4.7 40.4 61 -2.2 28.1
01:00 1025 30.27 855 25.25 4.2 39.6 62 -2.3 27.8
01:05 1026 30.3 855 25.25 4.1 39.4 63 -2.3 27.9
01:10 1026 30.3 855 25.25 4.4 39.9 61 -2.4 27.6
01:15 1026 30.3 855 25.25 4.2 39.5 63 -2.3 27.8
01:20 1026 30.3 855 25.25 3.9 39 61 -2.8 26.9
01:25 1026 30.3 855 25.25 4 39.2 62 -2.7 27.2
01:30 1026 30.3 855 25.25 3.8 38.9 62 -2.9 26.9
01:35 1026 30.3 855 25.25 3.8 38.8 61 -3.1 26.5
01:40 1026 30.3 855 25.25 3.7 38.6 61 -3.2 26.2
01:45 1026 30.3 855 25.25 4 39.2 60 -3.1 26.5
01:50 1026 30.3 855 25.25 3.7 38.7 60 -3.2 26.2
01:55 1026 30.3 855 25.25 3.8 38.8 60 -3.4 25.9
02:00 1026 30.3 855 25.25 3.7 38.7 59 -3.4 25.8
02:05 1026 30.3 855 25.25 3.6 38.5 60 -3.3 26
02:10 1025 30.27 855 25.25 3.5 38.3 60 -3.4 25.8
02:15 1025 30.27 855 25.25 3.5 38.2 60 -3.5 25.7
02:20 1025 30.27 855 25.25 3.4 38.1 61 -3.4 26
02:25 1025 30.27 855 25.25 3.2 37.7 62 -3.4 25.8
02:30 1025 30.27 855 25.25 3.1 37.6 62 -3.4 25.9
02:35 1025 30.27 855 25.25 2.9 37.3 63 -3.5 25.8
02:40 1025 30.27 855 25.25 3 37.4 63 -3.4 25.9
02:45 1025 30.27 855 25.25 2.6 36.6 65 -3.3 26.1
02:50 1025 30.27 855 25.25 2.3 36.1 64 -3.7 25.3
02:55 1025 30.27 855 25.25 2.5 36.5 63 -3.9 25
03:00 1025 30.27 855 25.25 2.5 36.6 62 -3.9 25
03:05 1025 30.27 854 25.22 2.6 36.7 62 -3.9 25
03:10 1025 30.27 855 25.25 2.5 36.5 63 -3.9 25
03:15 1025 30.27 855 25.25 2.4 36.4 62 -4.1 24.6
03:20 1025 30.27 854 25.22 2.4 36.3 63 -4 24.8
03:25 1025 30.27 854 25.22 2.3 36.2 64 -3.8 25.2
03:30 1025 30.27 854 25.22 2.1 35.7 64 -4 24.8
03:35 1025 30.27 854 25.22 1.9 35.5 65 -3.9 25
03:40 1025 30.27 854 25.22 1.7 35.1 66 -3.9 25.1
03:45 1025 30.27 854 25.22 1.7 35 67 -3.9 25
03:50 1025 30.27 854 25.22 1.7 35 67 -3.9 25
03:55 1025 30.27 854 25.22 1.6 35 66 -4 24.7
04:00 1025 30.27 854 25.22 1.6 34.8 66 -4 24.7
04:05 1025 30.27 854 25.22 1.5 34.8 65 -4.3 24.2
04:10 1025 30.27 854 25.22 1.4 34.6 63 -4.8 23.4
04:15 1025 30.27 854 25.22 1.5 34.7 62 -4.9 23.1
04:20 1025 30.27 854 25.22 1.5 34.8 62 -4.9 23.2
04:25 1025 30.27 854 25.22 1.6 34.8 63 -4.7 23.6
04:30 1025 30.27 854 25.22 1.5 34.8 63 -4.7 23.6
04:35 1025 30.27 854 25.22 1.5 34.8 62 -4.9 23.3
04:40 1025 30.27 854 25.22 1.8 35.2 61 -4.9 23.2
04:45 1025 30.27 854 25.22 2.2 36 59 -5 22.9
04:50 1025 30.27 854 25.22 2.5 36.5 57 -5.2 22.6
04:55 1025 30.27 854 25.22 3 37.4 54 -5.3 22.4
05:00 1025 30.27 854 25.22 2.9 37.3 54 -5.4 22.3
05:05 1025 30.27 854 25.22 2.9 37.2 54 -5.6 21.9
05:10 1025 30.27 854 25.22 2.6 36.8 54 -5.6 21.9
05:15 1025 30.27 854 25.22 2.5 36.4 57 -5.3 22.5
05:20 1025 30.27 854 25.22 2.1 35.8 57 -5.6 21.9
05:25 1025 30.27 855 25.25 1.9 35.5 58 -5.4 22.3
05:30 1025 30.27 854 25.22 1.8 35.2 59 -5.3 22.4
05:35 1025 30.27 854 25.22 1.4 34.6 60 -5.5 22
05:40 1025 30.27 855 25.25 1.3 34.4 60 -5.5 22.1
05:45 1025 30.27 854 25.22 1.1 33.9 62 -5.5 22.1
05:50 1025 30.27 855 25.25 0.9 33.7 62 -5.6 22
05:55 1025 30.27 854 25.22 1 33.7 61 -5.7 21.7
06:00 1025 30.27 855 25.25 1.3 34.3 57 -6.3 20.7
06:05 1025 30.27 854 25.22 1.7 35.1 57 -5.9 21.4
06:10 1025 30.27 855 25.25 1.4 34.6 59 -5.6 21.9
06:15 1025 30.27 855 25.25 1.4 34.5 60 -5.6 22
06:20 1025 30.27 855 25.25 1.2 34.1 61 -5.5 22.2
06:25 1025 30.27 855 25.25 1 33.8 62 -5.4 22.3
06:30 1025 30.27 855 25.25 0.7 33.2 64 -5.4 22.2
06:35 1026 30.3 855 25.25 0.6 33 64 -5.5 22.1
06:40 1026 30.3 855 25.25 0.5 32.9 64 -5.6 22
06:45 1026 30.3 855 25.25 0.4 32.7 65 -5.4 22.2
06:50 1026 30.3 855 25.25 0.4 32.7 66 -5.3 22.5
06:55 1026 30.3 855 25.25 0.6 33.1 65 -5.2 22.6
07:00 1026 30.3 855 25.25 0.9 33.6 64 -5.1 22.9
07:05 1026 30.3 855 25.25 1.1 34 64 -5 23.1
07:10 1026 30.3 855 25.25 1.2 34.1 64 -4.9 23.2
07:15 1026 30.3 855 25.25 1.3 34.4 63 -4.9 23.2
07:20 1026 30.3 855 25.25 1.4 34.6 62 -5.1 22.8
07:25 1026 30.3 855 25.25 1.6 34.9 60 -5.3 22.5
07:30 1026 30.3 855 25.25 2.1 35.8 57 -5.5 22.2
07:35 1026 30.3 855 25.25 2.5 36.4 56 -5.4 22.2
07:40 1026 30.3 855 25.25 2.7 36.9 56 -5.2 22.7
07:45 1026 30.3 855 25.25 3 37.4 55 -5.1 22.9
07:50 1026 30.3 855 25.25 3.3 38 55 -4.8 23.3
07:55 1026 30.3 855 25.25 3.6 38.6 54 -4.8 23.4
08:00 1026 30.3 855 25.25 4 39.2 54 -4.4 24
08:05 1026 30.3 855 25.25 4.4 40 52 -4.5 24
08:10 1026 30.3 855 25.25 4.8 40.7 51 -4.5 24
08:15 1026 30.3 855 25.25 5.2 41.3 50 -4.3 24.2
08:20 1026 30.3 855 25.25 6 42.8 47 -4.6 23.7
08:25 1026 30.3 855 25.25 6.2 43.2 47 -4.3 24.3
08:30 1026 30.3 855 25.25 6.4 43.5 47 -4.2 24.4
08:35 1026 30.3 855 25.25 7.2 45 44 -4.1 24.6
08:40 1026 30.3 855 25.25 7.7 45.8 43 -4.2 24.4
08:45 1026 30.3 855 25.25 8 46.4 42 -4.1 24.7
08:50 1026 30.3 855 25.25 8.1 46.5 42 -4 24.8
08:55 1026 30.3 855 25.25 8.1 46.5 42 -4 24.8
09:00 1026 30.3 855 25.25 8.2 46.7 42 -4 24.8
09:05 1026 30.3 855 25.25 8.6 47.4 39 -4.5 23.9
09:10 1026 30.3 855 25.25 8.6 47.5 39 -4.4 24
09:15 1026 30.3 855 25.25 9.1 48.4 39 -4.2 24.5
09:20 1026 30.3 855 25.25 9.2 48.6 40 -3.8 25.2
09:25 1026 30.3 855 25.25 9.3 48.8 38 -4.2 24.4
09:30 1026 30.3 855 25.25 9.4 48.8 41 -3 26.5
09:35 1026 30.3 855 25.25 9.4 48.9 40 -3.4 25.9
09:40 1026 30.3 855 25.25 9.5 49.2 39 -3.6 25.5
09:45 1026 30.3 855 25.25 10.3 50.5 37 -3.7 25.3
09:50 1026 30.3 855 25.25 10.8 51.4 36 -3.6 25.4
09:55 1026 30.3 855 25.25 11.2 52.1 35 -3.6 25.5
10:00 1026 30.3 855 25.25 10.7 51.3 36 -3.5 25.6
10:05 1026 30.3 855 25.25 10.4 50.8 38 -3.3 26
10:10 1026 30.3 855 25.25 11.2 52.1 34 -4.1 24.5
10:15 1026 30.3 855 25.25 11.4 52.5 35 -3.4 26
10:20 1026 30.3 855 25.25 11.3 52.4 36 -3.3 26
10:25 1026 30.3 855 25.25 11.2 52.1 37 -3.1 26.5
10:30 1026 30.3 855 25.25 10.9 51.7 37 -3.2 26.3
10:35 1026 30.3 855 25.25 10.4 50.7 37 -3.8 25.2
10:40 1026 30.3 855 25.25 11.3 52.3 35 -3.8 25.2
10:45 1026 30.3 855 25.25 11.6 52.9 35 -3.5 25.8
10:50 1026 30.3 855 25.25 12.7 54.9 33 -3.1 26.4
10:55 1026 30.3 855 25.25 11.9 53.5 33 -3.7 25.4
11:00 1026 30.3 855 25.25 12.8 55.1 32 -3.3 26.1
11:05 1026 30.3 855 25.25 12.5 54.6 32 -3.6 25.5
11:10 1026 30.3 855 25.25 13.1 55.6 30 -4.1 24.6
11:15 1026 30.3 855 25.25 13.3 55.9 30 -4 24.9
11:20 1026 30.3 855 25.25 13.5 56.3 29 -4.2 24.5
11:25 1026 30.3 855 25.25 14 57.2 28 -4.3 24.3
11:30 1026 30.3 855 25.25 13 55.4 29 -4.5 23.8
11:35 1026 30.3 855 25.25 13.6 56.4 26 -5.4 22.2
11:40 1026 30.3 855 25.25 14 57.2 26 -5.4 22.3
11:45 1026 30.3 855 25.25 13 55.3 29 -4.6 23.8
11:50 1026 30.3 855 25.25 13.3 56 27 -5.1 22.8
11:55 1026 30.3 855 25.25 14.5 58.1 27 -4.2 24.5
12:00 1026 30.3 855 25.25 14.8 58.6 26 -4.7 23.5
12:05 1026 30.3 855 25.25 15.6 60.1 23 -5.1 22.7
12:10 1026 30.3 855 25.25 15.9 60.6 24 -4.6 23.7
12:15 1025 30.27 855 25.25 15.2 59.3 24 -5.5 22.2
12:20 1025 30.27 854 25.22 15.9 60.5 23 -5.3 22.4
12:25 1025 30.27 854 25.22 16.6 61.8 21 -5.5 22.2
12:30 1025 30.27 854 25.22 16.8 62.3 21 -5.5 22.1
12:35 1025 30.27 854 25.22 16.7 62 21 -5.8 21.5
12:40 1025 30.27 854 25.22 17 62.6 20 -6.3 20.7
12:45 1025 30.27 854 25.22 15.8 60.5 21 -6.6 20.1
12:50 1025 30.27 854 25.22 16.1 61 19 -7.3 18.9
12:55 1025 30.27 854 25.22 15.3 59.5 19 -8.2 17.3
13:00 1025 30.27 854 25.22 15.1 59.1 20 -7.7 18.1
13:05 1025 30.27 854 25.22 15.7 60.2 20 -7.3 18.9
13:10 1025 30.27 854 25.22 16.7 62 18 -7.6 18.4
13:15 1025 30.27 854 25.22 17.6 63.7 16 -8.2 17.3
13:20 1025 30.27 854 25.22 17.3 63.2 19 -6.7 19.9
13:25 1025 30.27 854 25.22 17.6 63.8 15 -8.9 16
13:30 1025 30.27 854 25.22 18 64.3 15 -9.4 15.1
13:35 1025 30.27 854 25.22 18.1 64.6 15 -9.3 15.3
13:40 1024 30.24 854 25.22 18.4 65 14 -9.6 14.8
13:45 1024 30.24 854 25.22 18.1 64.6 15 -8.6 16.5
13:50 1024 30.24 854 25.22 18.3 65 14 -9.6 14.8
13:55 1024 30.24 854 25.22 18.6 65.5 14 -9 15.7
14:00 1024 30.24 854 25.22 18.5 65.3 14 -9.4 15
14:05 1024 30.24 854 25.22 18.6 65.4 15 -8.9 16
14:10 1024 30.24 853 25.19 18.8 65.9 15 -8.1 17.4
14:15 1024 30.24 853 25.19 18.2 64.8 15 -8.9 15.9
14:20 1024 30.24 853 25.19 18 64.4 15 -9.1 15.7
14:25 1024 30.24 853 25.19 18.7 65.6 14 -8.9 15.9
14:30 1024 30.24 853 25.19 18.8 65.8 15 -8.7 16.3
14:35 1024 30.24 853 25.19 18.6 65.5 15 -8.4 16.9
14:40 1024 30.24 853 25.19 18.7 65.7 15 -8.8 16.2
14:45 1024 30.24 853 25.19 19.6 67.2 17 -6.3 20.7
14:50 1024 30.24 853 25.19 18.1 64.6 15 -9 15.9
14:55 1024 30.24 853 25.19 18.4 65.2 14 -9.2 15.5
15:00 1024 30.24 853 25.19 17.9 64.2 15 -9.4 15
15:05 1024 30.24 853 25.19 18.4 65.2 13 -10.2 13.7
15:10 1024 30.24 853 25.19 18.9 65.9 13 -10.5 13.1
15:15 1024 30.24 853 25.19 18.9 66 13 -10 14
15:20 1024 30.24 853 25.19 18.8 65.8 14 -9.6 14.7
15:25 1023 30.21 853 25.19 19 66.2 13 -9.5 14.8
15:30 1023 30.21 853 25.19 19.4 66.8 13 -9.5 14.8
15:35 1023 30.21 853 25.19 19.2 66.6 13 -9.6 14.8
15:40 1023 30.21 852 25.16 19.7 67.4 12 -10.2 13.6
15:45 1023 30.21 852 25.16 19.9 67.9 13 -9.4 15.1
15:50 1023 30.21 852 25.16 19.7 67.4 13 -9.8 14.4
15:55 1023 30.21 852 25.16 19.3 66.7 12 -10.4 13.2
16:00 1023 30.21 852 25.16 19.8 67.6 13 -9.3 15.2
16:05 1023 30.21 852 25.16 20.2 68.3 12 -9.8 14.4
16:10 1023 30.21 852 25.16 20.1 68.1 13 -9.2 15.5
16:15 1023 30.21 852 25.16 20.3 68.5 13 -8.5 16.7
16:20 1023 30.21 852 25.16 20.2 68.4 12 -9.6 14.7
16:25 1023 30.21 852 25.16 20.1 68.1 13 -9.2 15.4
16:30 1023 30.21 852 25.16 19.6 67.3 13 -9.4 15
16:35 1023 30.21 852 25.16 19.5 67.2 14 -8.8 16.2
16:40 1023 30.21 852 25.16 19.8 67.7 13 -9.1 15.6
16:45 1023 30.21 852 25.16 20 67.9 13 -8.9 16
16:50 1023 30.21 852 25.16 20.1 68.1 13 -8.9 16
16:55 1023 30.21 852 25.16 19.6 67.2 14 -8.7 16.4
17:00 1023 30.21 852 25.16 19.9 67.9 14 -8.3 17
17:05 1023 30.21 852 25.16 20.2 68.3 14 -7.7 18.2
17:10 1023 30.21 852 25.16 20.2 68.4 14 -8.4 16.9
17:15 1023 30.21 852 25.16 20.4 68.8 14 -8.3 17.1
17:20 1023 30.21 852 25.16 20.4 68.7 14 -8.3 17.1
17:25 1023 30.21 852 25.16 19.9 67.9 13 -8.8 16.1
17:30 1023 30.21 852 25.16 19.8 67.6 15 -7.7 18.1
17:35 1023 30.21 852 25.16 20 68 14 -8 17.7
17:40 1023 30.21 852 25.16 20.2 68.4 13 -9.1 15.6
17:45 1023 30.21 852 25.16 19.9 67.8 13 -9.3 15.3
17:50 1022 30.18 852 25.16 19.7 67.5 15 -7.5 18.4
17:55 1022 30.18 852 25.16 19.7 67.5 13 -9.4 15.1
18:00 1022 30.18 852 25.16 19.1 66.4 15 -7.8 17.9
18:05 1022 30.18 852 25.16 18.7 65.6 14 -9.6 14.8
18:10 1022 30.18 851 25.13 19.3 66.8 14 -8.9 15.9
18:15 1022 30.18 851 25.13 19.8 67.6 14 -8.8 16.2
18:20 1022 30.18 851 25.13 19.7 67.4 14 -8.9 16.1
18:25 1022 30.18 851 25.13 19.5 67.2 14 -8.9 16.1
18:30 1022 30.18 851 25.13 19.5 67.2 13 -9.1 15.5
18:35 1022 30.18 851 25.13 19.8 67.6 14 -8.8 16.2
18:40 1022 30.18 851 25.13 19.8 67.6 13 -9.1 15.6
18:45 1022 30.18 851 25.13 19.1 66.4 14 -9 15.8
18:50 1022 30.18 851 25.13 18.3 64.9 14 -9.9 14.1
18:55 1022 30.18 851 25.13 18.1 64.6 14 -10.1 13.8
19:00 1022 30.18 851 25.13 18.1 64.5 14 -9.8 14.4
19:05 1022 30.18 851 25.13 18.2 64.8 14 -10 14
19:10 1022 30.18 851 25.13 18.4 65 14 -9.2 15.5
19:15 1022 30.18 851 25.13 18.2 64.8 13 -10.5 13
19:20 1022 30.18 851 25.13 18 64.4 13 -10.5 13.1
19:25 1022 30.18 851 25.13 17.8 64 14 -10.2 13.7
19:30 1022 30.18 851 25.13 17.8 64.1 14 -10.2 13.6
19:35 1022 30.18 851 25.13 17.9 64.2 13 -10.4 13.2
19:40 1022 30.18 851 25.13 17.9 64.3 13 -10.8 12.6
19:45 1022 30.18 851 25.13 17.9 64.2 13 -10.8 12.5
19:50 1022 30.18 851 25.13 17.8 64 13 -10.6 13
19:55 1022 30.18 851 25.13 17.7 63.8 14 -10.6 13
20:00 1022 30.18 851 25.13 17.6 63.6 14 -10.1 13.9
20:05 1022 30.18 851 25.13 17.4 63.4 14 -10.1 13.8
20:10 1022 30.18 851 25.13 17.2 62.9 15 -9.8 14.4
20:15 1022 30.18 851 25.13 16.8 62.3 16 -9.4 15.1
20:20 1022 30.18 851 25.13 16.6 61.8 17 -8.5 16.6
20:25 1022 30.18 851 25.13 16.4 61.5 18 -8.1 17.4
20:30 1022 30.18 851 25.13 16.1 61 23 -4.7 23.5
20:35 1022 30.18 851 25.13 14.9 58.9 28 -3.5 25.6
20:40 1022 30.18 851 25.13 14 57.1 30 -3.3 26
20:45 1022 30.18 851 25.13 13.5 56.2 31 -3.3 26
20:50 1022 30.18 851 25.13 13.1 55.5 31 -3.4 25.8
20:55 1022 30.18 851 25.13 12.6 54.8 33 -3.3 26.1
21:00 1022 30.18 851 25.13 12.2 53.9 34 -3.1 26.5
21:05 1022 30.18 851 25.13 11.8 53.2 35 -3 26.7
21:10 1022 30.18 851 25.13 11.5 52.7 34 -3.9 24.9
21:15 1022 30.18 851 25.13 11.4 52.4 32 -4.8 23.4
21:20 1022 30.18 851 25.13 11.2 52.1 33 -4.6 23.7
21:25 1022 30.18 851 25.13 10.8 51.4 33 -4.9 23.2
21:30 1022 30.18 851 25.13 10.6 51.1 33 -5.1 22.8
21:35 1022 30.18 851 25.13 10.6 51.1 33 -5 23.1
21:40 1022 30.18 851 25.13 10.4 50.6 34 -4.8 23.3
21:45 1022 30.18 851 25.13 10 50 34 -5 23
21:50 1022 30.18 851 25.13 9.9 49.9 34 -5.2 22.7
21:55 1022 30.18 851 25.13 9.9 49.9 34 -5.2 22.6
22:00 1022 30.18 851 25.13 9.8 49.7 34 -5.2 22.6
22:05 1022 30.18 851 25.13 9.5 49.1 36 -4.9 23.3
22:10 1022 30.18 851 25.13 9.3 48.7 36 -4.9 23.2
22:15 1022 30.18 851 25.13 9.2 48.5 36 -5 22.9
22:20 1022 30.18 851 25.13 9.1 48.3 36 -5.2 22.7
22:25 1022 30.18 851 25.13 9.1 48.3 36 -5.2 22.6
22:30 1022 30.18 851 25.13 9 48.2 37 -5 23
22:35 1022 30.18 851 25.13 8.9 48 36 -5.4 22.3
22:40 1022 30.18 851 25.13 8.9 48 36 -5.4 22.3
22:45 1022 30.18 851 25.13 8.9 48 37 -5.1 22.9
22:50 1022 30.18 851 25.13 8.7 47.7 37 -5.3 22.4
22:55 1022 30.18 851 25.13 8.6 47.5 38 -4.9 23.2
23:00 1022 30.18 851 25.13 8.1 46.5 41 -4.4 24
23:05 1022 30.18 851 25.13 7.7 45.9 41 -4.8 23.3
23:10 1022 30.18 851 25.13 7.8 46.1 38 -5.5 22.1
23:15 1022 30.18 851 25.13 8.1 46.6 35 -6.3 20.7
23:20 1022 30.18 851 25.13 8.5 47.2 36 -5.7 21.7
23:25 1022 30.18 851 25.13 8.2 46.8 36 -6 21.2
23:30 1022 30.18 851 25.13 8.1 46.6 36 -5.9 21.3
23:35 1022 30.18 851 25.13 8.3 46.9 34 -6.6 20.1
23:40 1021 30.15 851 25.13 8.7 47.7 33 -6.7 20
23:45 1021 30.15 851 25.13 8.8 47.8 34 -6.2 20.8
23:50 1021 30.15 851 25.13 8.5 47.4 35 -6 21.3
23:55 1021 30.15 851 25.13 8.3 47 37 -5.7 21.8
24:00 1021 30.15 851 25.13 7.9 46.3 39 -5.3 22.4